createdAt,value
2023-03-29T00:00:44.851Z,35.74
2023-03-29T00:03:51.214Z,35.70
2023-03-29T00:07:14.719Z,35.72
2023-03-29T00:09:35.042Z,35.73
2023-03-29T00:12:37.495Z,35.71
2023-03-29T00:18:35.375Z,35.72
2023-03-29T00:21:52.632Z,35.67
2023-03-29T00:30:26.384Z,35.69
2023-03-29T00:33:46.934Z,35.65
2023-03-29T00:39:53.811Z,35.63
2023-03-29T00:42:32.732Z,35.61
2023-03-29T00:45:49.360Z,35.63
2023-03-29T00:48:34.767Z,35.58
2023-03-29T00:51:54.442Z,35.58
2023-03-29T00:54:39.046Z,35.64
2023-03-29T00:57:28.159Z,35.64
2023-03-29T01:00:24.843Z,35.66
2023-03-29T01:03:43.048Z,35.66
2023-03-29T01:06:42.996Z,35.62
2023-03-29T01:09:54.769Z,35.63
2023-03-29T01:12:51.930Z,35.61
2023-03-29T01:16:11.893Z,35.62
2023-03-29T01:18:51.268Z,35.65
2023-03-29T01:21:49.046Z,35.58
2023-03-29T01:28:18.193Z,35.61
2023-03-29T01:34:14.063Z,35.59
2023-03-29T01:39:53.710Z,35.61
2023-03-29T01:42:56.845Z,35.59
2023-03-29T01:45:37.903Z,35.60
2023-03-29T01:48:45.551Z,35.61
2023-03-29T01:55:17.959Z,35.59
2023-03-29T01:57:59.343Z,35.59
2023-03-29T02:00:33.694Z,35.54
2023-03-29T02:03:23.811Z,35.51
2023-03-29T02:05:55.063Z,35.49
2023-03-29T02:08:27.134Z,35.47
2023-03-29T02:11:06.061Z,35.44
2023-03-29T02:13:40.382Z,35.43
2023-03-29T02:16:14.277Z,35.39
2023-03-29T02:19:01.548Z,35.38
2023-03-29T02:24:57.906Z,35.36
2023-03-29T02:28:02.597Z,35.21
2023-03-29T02:30:54.758Z,35.25
2023-03-29T02:37:09.998Z,35.26
2023-03-29T02:39:52.643Z,35.25
2023-03-29T02:42:59.745Z,35.24
2023-03-29T02:58:20.310Z,35.06
2023-03-29T03:00:58.682Z,35.11
2023-03-29T03:04:20.589Z,35.12
2023-03-29T03:06:56.016Z,35.10
2023-03-29T03:09:30.327Z,35.09
2023-03-29T03:31:07.032Z,35.00
2023-03-29T03:33:52.520Z,35.00
2023-03-29T03:40:17.407Z,34.94
2023-03-29T03:43:05.294Z,34.95
2023-03-29T03:46:20.419Z,34.92
2023-03-29T03:49:07.749Z,34.94
2023-03-29T03:52:11.155Z,34.88
2023-03-29T03:58:18.011Z,34.78
2023-03-29T04:01:15.725Z,34.71
2023-03-29T04:04:11.000Z,34.70
2023-03-29T04:20:16.384Z,34.71
2023-03-29T04:22:47.023Z,34.68
2023-03-29T04:25:18.844Z,34.70
2023-03-29T04:31:12.338Z,34.71
2023-03-29T04:37:15.434Z,34.68
2023-03-29T04:43:40.113Z,34.66
2023-03-29T04:46:31.742Z,34.62
2023-03-29T04:52:30.964Z,34.57
2023-03-29T04:58:19.519Z,34.60
2023-03-29T05:10:10.727Z,34.53
2023-03-29T05:16:08.237Z,34.56
2023-03-29T05:25:01.874Z,34.53
2023-03-29T05:28:08.088Z,34.52
2023-03-29T05:31:39.022Z,34.52
2023-03-29T05:54:17.623Z,34.40
2023-03-29T05:56:47.837Z,34.40
2023-03-29T05:59:18.697Z,34.43
2023-03-29T06:01:51.187Z,34.44
2023-03-29T06:04:33.337Z,34.44
2023-03-29T06:07:17.387Z,34.41
2023-03-29T06:10:25.129Z,34.44
2023-03-29T06:13:22.750Z,34.41
2023-03-29T06:16:21.221Z,34.40
2023-03-29T06:19:22.833Z,34.40
2023-03-29T06:22:20.597Z,34.37
2023-03-29T06:24:58.733Z,34.38
2023-03-29T06:27:35.228Z,34.36
2023-03-29T06:30:07.545Z,34.31
2023-03-29T06:32:59.674Z,34.34
2023-03-29T06:35:32.251Z,34.33
2023-03-29T06:38:04.473Z,34.33
2023-03-29T06:40:39.510Z,34.31
2023-03-29T06:43:24.217Z,34.32
2023-03-29T06:46:22.114Z,34.29
2023-03-29T07:16:46.897Z,34.20
2023-03-29T07:19:27.407Z,34.21
2023-03-29T07:22:16.747Z,34.23
2023-03-29T07:24:48.527Z,34.24
2023-03-29T07:27:19.928Z,34.21
2023-03-29T07:35:49.954Z,34.24
2023-03-29T07:38:21.526Z,34.23
2023-03-29T07:40:56.111Z,34.22
2023-03-29T07:49:26.249Z,34.18
2023-03-29T07:54:45.731Z,34.15
2023-03-29T07:57:22.624Z,34.15
2023-03-29T07:59:57.517Z,34.15
2023-03-29T08:03:18.331Z,34.14
2023-03-29T08:05:39.973Z,34.13
2023-03-29T08:11:10.696Z,34.13
2023-03-29T08:14:08.530Z,34.13
2023-03-29T08:16:40.869Z,34.13
2023-03-29T08:26:09.998Z,34.09
2023-03-29T08:28:47.602Z,34.10
2023-03-29T08:31:48.105Z,34.11
2023-03-29T08:37:34.082Z,34.08
2023-03-29T08:49:42.889Z,34.06
2023-03-29T08:52:27.687Z,34.03
2023-03-29T08:54:58.530Z,34.06
2023-03-29T08:57:33.169Z,34.02
2023-03-29T09:00:09.030Z,34.05
2023-03-29T09:02:39.862Z,34.03
2023-03-29T09:05:29.108Z,34.02
2023-03-29T09:08:10.461Z,34.02
2023-03-29T09:10:41.865Z,34.01
2023-03-29T09:16:46.622Z,33.98
2023-03-29T09:19:40.403Z,33.98
2023-03-29T09:22:43.230Z,33.96
2023-03-29T09:25:54.623Z,33.98
2023-03-29T09:28:56.945Z,34.01
2023-03-29T09:35:21.232Z,33.95
2023-03-29T09:41:10.487Z,33.96
2023-03-29T09:46:59.642Z,33.93
2023-03-29T09:50:31.057Z,33.94
2023-03-29T09:56:40.590Z,33.81
2023-03-29T09:59:26.087Z,33.81
2023-03-29T10:02:18.390Z,34.02
2023-03-29T10:05:15.648Z,33.98
2023-03-29T10:08:04.270Z,33.93
2023-03-29T10:17:02.732Z,33.88
2023-03-29T10:20:02.905Z,33.88
2023-03-29T10:23:02.020Z,33.87
2023-03-29T10:26:11.594Z,33.75
2023-03-29T10:29:16.163Z,33.72
2023-03-29T10:31:49.418Z,33.77
2023-03-29T10:34:20.524Z,33.73
2023-03-29T10:36:56.421Z,33.73
2023-03-29T10:39:27.200Z,33.73
2023-03-29T10:42:00.732Z,33.72
2023-03-29T10:44:44.937Z,33.70
2023-03-29T10:47:24.994Z,33.70
2023-03-29T10:49:57.454Z,33.69
2023-03-29T10:55:18.357Z,33.66
2023-03-29T10:58:00.377Z,33.66
2023-03-29T11:00:51.449Z,33.73
2023-03-29T11:03:27.774Z,33.88
2023-03-29T11:06:07.010Z,34.10
2023-03-29T11:08:55.134Z,34.18
2023-03-29T11:11:48.522Z,34.21
2023-03-29T11:28:04.527Z,34.33
2023-03-29T11:30:55.518Z,34.33
2023-03-29T11:33:39.193Z,34.47
2023-03-29T11:36:41.552Z,34.39
2023-03-29T11:39:39.708Z,34.35
2023-03-29T11:42:22.645Z,34.61
2023-03-29T11:45:09.829Z,34.90
2023-03-29T11:47:45.646Z,34.96
2023-03-29T11:50:53.085Z,35.08
2023-03-29T11:57:04.104Z,34.87
2023-03-29T12:00:08.937Z,34.71
2023-03-29T12:03:04.882Z,34.73
2023-03-29T12:05:46.478Z,34.71
2023-03-29T12:08:38.112Z,34.71
2023-03-29T12:11:31.780Z,34.68
2023-03-29T12:14:26.076Z,34.66
2023-03-29T12:17:38.606Z,34.65
2023-03-29T12:20:47.788Z,34.60
2023-03-29T12:23:32.959Z,34.77
2023-03-29T12:26:12.913Z,34.96
2023-03-29T12:32:44.684Z,35.16
2023-03-29T12:35:36.583Z,35.17
2023-03-29T12:38:29.393Z,35.20
2023-03-29T12:47:36.129Z,33.98
2023-03-29T12:50:19.443Z,33.85
2023-03-29T12:53:34.331Z,33.85
2023-03-29T12:56:51.600Z,34.47
2023-03-29T12:59:44.485Z,34.44
2023-03-29T13:02:48.729Z,34.13
2023-03-29T13:05:42.081Z,33.92
2023-03-29T13:08:37.475Z,33.76
2023-03-29T13:11:44.911Z,33.45
2023-03-29T13:14:26.538Z,33.54
2023-03-29T13:17:18.832Z,33.24
2023-03-29T13:23:46.879Z,33.54
2023-03-29T13:30:20.364Z,33.19
2023-03-29T13:32:59.446Z,33.45
2023-03-29T13:36:13.691Z,33.25
2023-03-29T13:38:55.650Z,33.07
2023-03-29T13:41:51.418Z,33.44
2023-03-29T13:44:44.976Z,33.37
2023-03-29T13:48:05.186Z,33.45
2023-03-29T13:50:48.084Z,33.18
2023-03-29T13:57:07.467Z,33.51
2023-03-29T14:00:23.450Z,33.51
2023-03-29T14:03:28.918Z,33.51
2023-03-29T14:06:09.817Z,33.49
2023-03-29T14:08:42.003Z,33.45
2023-03-29T14:20:50.806Z,33.22
2023-03-29T14:23:52.062Z,33.15
2023-03-29T14:26:50.429Z,33.10
2023-03-29T14:32:57.149Z,33.10
2023-03-29T14:35:41.047Z,33.06
2023-03-29T14:38:36.888Z,33.05
2023-03-29T14:41:27.672Z,33.06
2023-03-29T14:43:57.251Z,32.97
2023-03-29T14:46:27.926Z,32.95
2023-03-29T14:48:57.945Z,32.97
2023-03-29T14:51:30.109Z,32.93
2023-03-29T14:54:06.495Z,32.89
2023-03-29T14:57:02.937Z,32.95
2023-03-29T15:06:02.916Z,33.03
2023-03-29T15:10:00.732Z,33.13
2023-03-29T15:18:47.276Z,32.96
2023-03-29T15:21:19.336Z,32.93
2023-03-29T15:23:56.245Z,32.93
2023-03-29T15:30:07.383Z,32.86
2023-03-29T15:33:08.497Z,32.81
2023-03-29T15:36:05.953Z,32.80
2023-03-29T15:45:17.967Z,33.04
2023-03-29T15:48:11.543Z,33.08
2023-03-29T15:50:59.819Z,33.12
2023-03-29T15:53:46.676Z,33.15
2023-03-29T15:57:03.438Z,33.14
2023-03-29T16:00:19.323Z,33.13
2023-03-29T16:03:30.531Z,33.11
2023-03-29T16:06:11.446Z,33.11
2023-03-29T16:09:14.716Z,33.11
2023-03-29T16:12:17.507Z,33.16
2023-03-29T16:15:19.292Z,33.15
2023-03-29T16:18:36.997Z,33.17
2023-03-29T16:21:15.203Z,33.14
2023-03-29T16:24:36.502Z,33.13
2023-03-29T16:27:36.358Z,33.15
2023-03-29T16:30:31.828Z,33.12
2023-03-29T16:33:17.195Z,33.11
2023-03-29T16:36:35.131Z,33.15
2023-03-29T16:42:09.870Z,33.14
2023-03-29T16:45:42.585Z,33.12
2023-03-29T16:48:38.323Z,33.13
2023-03-29T16:51:32.224Z,33.15
2023-03-29T16:57:31.540Z,33.14
2023-03-29T17:00:04.363Z,33.12
2023-03-29T17:03:05.652Z,33.12
2023-03-29T17:06:25.068Z,33.12
2023-03-29T17:09:33.912Z,33.13
2023-03-29T17:12:08.158Z,33.10
2023-03-29T17:21:36.854Z,33.17
2023-03-29T17:27:15.910Z,33.18
2023-03-29T17:39:46.184Z,33.19
2023-03-29T17:45:26.994Z,33.22
2023-03-29T17:52:10.795Z,33.21
2023-03-29T17:54:52.986Z,33.25
2023-03-29T17:57:54.849Z,33.22
2023-03-29T18:00:30.077Z,33.27
2023-03-29T18:06:36.744Z,33.28
2023-03-29T18:15:59.428Z,33.33
2023-03-29T18:21:49.760Z,33.35
2023-03-29T18:25:21.990Z,33.34
2023-03-29T18:27:18.569Z,33.37
2023-03-29T18:30:09.062Z,33.37
2023-03-29T18:35:31.309Z,33.39
2023-03-29T18:38:03.943Z,33.40
2023-03-29T18:40:45.562Z,33.40
2023-03-29T18:43:24.335Z,33.42
2023-03-29T18:46:11.077Z,33.43
2023-03-29T18:51:41.005Z,33.43
2023-03-29T18:54:29.882Z,33.44
2023-03-29T18:57:32.872Z,33.45
2023-03-29T19:00:59.454Z,33.46
2023-03-29T19:03:47.248Z,33.50
2023-03-29T19:09:55.508Z,33.51
2023-03-29T19:13:20.383Z,33.55
2023-03-29T19:21:34.136Z,33.58
2023-03-29T19:24:34.195Z,33.60
2023-03-29T19:27:49.405Z,33.60
2023-03-29T19:34:11.543Z,33.61
2023-03-29T19:37:04.198Z,33.61
2023-03-29T19:39:54.299Z,33.65
2023-03-29T19:45:38.103Z,33.68
2023-03-29T19:48:45.257Z,33.66
2023-03-29T19:52:05.213Z,33.69
2023-03-29T20:01:15.684Z,33.73
2023-03-29T20:03:54.307Z,33.73
2023-03-29T20:07:35.831Z,33.76
2023-03-29T20:09:49.637Z,33.79
2023-03-29T20:15:36.460Z,33.79
2023-03-29T20:18:41.263Z,33.78
2023-03-29T20:25:15.776Z,33.80
2023-03-29T20:31:11.850Z,33.84
2023-03-29T20:34:27.461Z,33.84
2023-03-29T20:42:58.796Z,33.85
2023-03-29T20:45:54.641Z,33.88
2023-03-29T20:49:15.789Z,33.87
2023-03-29T20:52:17.863Z,33.89
2023-03-29T20:58:18.587Z,33.87
2023-03-29T21:01:08.027Z,33.87
2023-03-29T21:03:53.816Z,33.87
2023-03-29T21:09:57.881Z,33.91
2023-03-29T21:13:03.710Z,34.18
2023-03-29T21:18:33.745Z,33.89
2023-03-29T21:24:01.668Z,33.91
2023-03-29T21:26:32.460Z,33.92
2023-03-29T21:31:55.511Z,33.93
2023-03-29T21:34:27.938Z,33.92
2023-03-29T21:36:58.397Z,33.91
2023-03-29T21:39:49.254Z,33.93
2023-03-29T21:43:05.155Z,33.94
2023-03-29T21:45:08.349Z,33.94
2023-03-29T21:47:38.590Z,33.91
2023-03-29T21:50:10.027Z,33.92
2023-03-29T21:52:40.126Z,33.91
2023-03-29T21:55:10.939Z,33.93
2023-03-29T21:58:13.238Z,33.89
2023-03-29T22:01:31.171Z,33.89
2023-03-29T22:04:33.532Z,33.80
2023-03-29T22:07:17.394Z,33.84
2023-03-29T22:12:55.352Z,33.90
2023-03-29T22:19:13.519Z,33.93
2023-03-29T22:22:18.144Z,33.96
2023-03-29T22:27:45.015Z,33.95
2023-03-29T22:30:15.413Z,33.96
2023-03-29T22:32:45.461Z,33.95
2023-03-29T22:35:15.568Z,33.94
2023-03-29T22:37:45.722Z,33.91
2023-03-29T22:40:18.944Z,33.93
2023-03-29T22:43:08.862Z,33.93
2023-03-29T22:46:04.737Z,33.93
2023-03-29T22:52:16.096Z,33.94
2023-03-29T22:58:10.925Z,33.94
2023-03-29T23:01:29.459Z,33.94
2023-03-29T23:04:52.238Z,33.95
2023-03-29T23:07:22.472Z,33.94
2023-03-29T23:10:38.157Z,33.92
2023-03-29T23:13:52.671Z,33.94
2023-03-29T23:19:45.415Z,33.94
2023-03-29T23:27:57.297Z,33.91
2023-03-29T23:33:16.252Z,33.90
2023-03-29T23:35:47.443Z,33.91
2023-03-29T23:38:17.562Z,33.89
2023-03-29T23:40:48.943Z,33.88
2023-03-29T23:43:20.201Z,33.90
2023-03-29T23:46:21.001Z,33.93
2023-03-29T23:49:20.553Z,33.92
2023-03-29T23:52:38.919Z,33.93
2023-03-29T23:55:35.167Z,33.92
2023-03-29T23:58:18.245Z,33.91
